Time;durP1;ratioP1;P1;durP2;ratioP2;P2;SDS_P1;SDS_P2;PMS_P1;PMS_P2;Temp;Humidity;BMP_temperature;BMP_pressure;BME280_temperature;BME280_humidity;BME280_pressure;Samples;Min_cycle;Max_cycle;Signal;HPM_P1;HPM_P2
2023/05/08 00:02:13;;;;;;;8.55;7.50;;;;;;;16.42;95.47;101933.38;5116736;28;20028;-67
2023/05/08 00:04:39;;;;;;;8.57;7.32;;;;;;;16.40;95.63;101932.47;5116761;28;20023;-66
2023/05/08 00:07:04;;;;;;;8.40;7.57;;;;;;;16.38;95.68;101942.25;5116537;28;20074;-66
2023/05/08 00:09:29;;;;;;;7.90;6.95;;;;;;;16.37;95.82;101938.69;5116306;28;20035;-67
2023/05/08 00:11:55;;;;;;;8.88;7.97;;;;;;;16.35;95.78;101945.78;5115037;28;20382;-67
2023/05/08 00:14:20;;;;;;;8.43;7.55;;;;;;;16.38;95.91;101942.25;5116083;28;20508;-66
2023/05/08 00:16:45;;;;;;;10.70;7.95;;;;;;;16.36;95.77;101952.00;5115955;28;20040;-66
2023/05/08 00:19:11;;;;;;;8.82;7.93;;;;;;;16.38;96.07;101951.13;5114978;28;20026;-66
2023/05/08 00:21:36;;;;;;;8.85;7.95;;;;;;;16.40;95.85;101944.03;5116360;28;20031;-66
2023/05/08 00:24:02;;;;;;;15.18;8.70;;;;;;;16.39;96.07;101942.25;5116008;28;20481;-67
2023/05/08 00:26:27;;;;;;;10.15;8.38;;;;;;;16.39;95.80;101936.91;5113405;28;20024;-66
2023/05/08 00:28:52;;;;;;;10.20;8.90;;;;;;;16.37;95.89;101930.69;5116063;28;20022;-66
2023/05/08 00:31:18;;;;;;;9.80;8.88;;;;;;;16.35;95.84;101934.22;5115875;28;20103;-66
2023/05/08 00:33:43;;;;;;;10.20;9.20;;;;;;;16.34;95.88;101935.09;5115800;28;20415;-67
2023/05/08 00:36:09;;;;;;;10.52;9.20;;;;;;;16.35;95.59;101936.88;5115820;28;20061;-66
2023/05/08 00:38:35;;;;;;;11.10;10.00;;;;;;;16.36;95.57;101941.31;5115713;28;20027;-66
2023/05/08 00:41:01;;;;;;;10.63;9.52;;;;;;;16.42;95.60;101933.38;5115718;28;20081;-66
2023/05/08 00:43:27;;;;;;;12.23;9.48;;;;;;;16.47;95.25;101936.94;5115657;28;20027;-66
2023/05/08 00:45:54;;;;;;;11.32;9.70;;;;;;;16.48;94.98;101934.25;5114169;28;20030;-66
2023/05/08 00:48:22;;;;;;;11.38;9.32;;;;;;;16.53;94.97;101936.97;5115651;28;20023;-66
2023/05/08 00:50:49;;;;;;;11.07;9.32;;;;;;;16.49;94.64;101935.19;5115417;28;20427;-66
2023/05/08 00:53:16;;;;;;;11.15;9.35;;;;;;;16.45;94.66;101936.06;5115773;28;20024;-67
2023/05/08 00:55:43;;;;;;;12.38;9.38;;;;;;;16.41;94.84;101935.16;5114537;28;20035;-66
2023/05/08 00:58:09;;;;;;;10.10;9.00;;;;;;;16.41;94.93;101927.16;5115379;28;20046;-66
2023/05/08 01:00:36;;;;;;;10.05;8.90;;;;;;;16.37;94.73;101932.47;5115357;28;20027;-66
2023/05/08 01:03:02;;;;;;;11.15;9.55;;;;;;;16.40;95.11;101930.72;5115551;28;20433;-66
2023/05/08 01:05:28;;;;;;;11.38;8.73;;;;;;;16.43;95.08;101929.81;5115272;28;20061;-66
2023/05/08 01:07:53;;;;;;;10.30;9.07;;;;;;;16.43;95.00;101930.69;5113964;28;20024;-66
2023/05/08 01:10:18;;;;;;;11.15;9.65;;;;;;;16.37;94.81;101929.81;5114973;28;20077;-66
2023/05/08 01:13:08;;;;;;;9.90;8.90;;;;;;;16.37;95.18;101929.81;5115337;28;20073;-66
2023/05/08 01:15:42;;;;;;;12.25;8.73;;;;;;;16.37;95.05;101927.13;5115027;28;20043;-67
2023/05/08 01:18:16;;;;;;;11.82;9.48;;;;;;;16.38;95.21;101929.78;5115370;28;20068;-67
2023/05/08 01:20:47;;;;;;;9.95;8.95;;;;;;;16.33;95.09;101928.00;5115620;28;20028;-66
2023/05/08 01:23:50;;;;;;;15.77;8.80;;;;;;;16.40;94.91;101922.72;5113733;28;20035;-66
2023/05/08 01:26:27;;;;;;;;;;;;;;;16.50;93.71;101931.63;5115386;28;20370;-66
2023/05/08 01:28:53;;;;;;;10.82;9.60;;;;;;;16.42;93.89;101925.38;5114784;28;20364;-67
2023/05/08 01:31:45;;;;;;;9.98;8.98;;;;;;;16.43;94.78;101925.38;5114771;28;20066;-65
2023/05/08 01:34:17;;;;;;;10.38;8.63;;;;;;;16.44;94.31;101924.47;5114759;28;20020;-66
2023/05/08 01:36:50;;;;;;;9.55;8.48;;;;;;;16.44;93.95;101928.91;5114754;28;20058;-66
2023/05/08 01:39:20;;;;;;;9.43;8.52;;;;;;;16.43;93.99;101935.16;5114640;28;20049;-66
2023/05/08 01:41:57;;;;;;;10.30;8.60;;;;;;;16.44;94.05;101923.56;5114565;28;20073;-66
2023/05/08 01:44:33;;;;;;;9.95;8.48;;;;;;;16.35;94.18;101921.78;5114586;28;20538;-67
2023/05/08 01:47:05;;;;;;;9.55;8.20;;;;;;;16.33;94.32;101920.00;5114342;28;20061;-66
2023/05/08 01:49:54;;;;;;;9.60;8.50;;;;;;;16.24;94.84;101920.84;5113130;28;20113;-66
2023/05/08 01:52:26;;;;;;;10.88;9.07;;;;;;;16.22;94.97;101917.25;5114402;28;20423;-66
2023/05/08 01:55:10;;;;;;;10.35;9.25;;;;;;;16.22;95.12;101925.28;5114489;28;20031;-66
2023/05/08 01:57:39;;;;;;;11.02;9.15;;;;;;;16.22;95.04;101934.16;5114536;28;20423;-66
2023/05/08 02:00:06;;;;;;;12.57;9.77;;;;;;;16.24;95.15;101934.19;5114266;28;20110;-65
2023/05/08 02:02:33;;;;;;;11.68;9.80;;;;;;;16.22;95.21;101928.81;5114456;28;20049;-66
2023/05/08 02:05:03;;;;;;;11.15;10.05;;;;;;;16.18;95.40;101937.69;5114206;28;20353;-66
2023/05/08 02:07:29;;;;;;;11.13;10.02;;;;;;;16.17;95.21;101946.59;5114391;28;20081;-66
2023/05/08 02:09:56;;;;;;;11.02;9.82;;;;;;;16.17;95.28;101945.69;5114065;28;20414;-66
2023/05/08 02:12:24;;;;;;;12.13;10.93;;;;;;;16.08;95.66;101942.97;5112641;28;20485;-66
2023/05/08 02:14:52;;;;;;;11.80;10.13;;;;;;;16.10;95.77;101951.88;5113943;28;20053;-66
2023/05/08 02:17:19;;;;;;;11.40;10.20;;;;;;;16.14;95.66;101954.56;5114085;28;20038;-66
2023/05/08 02:19:46;;;;;;;11.38;10.18;;;;;;;16.20;95.53;101948.38;5114200;28;20028;-66
2023/05/08 02:22:12;;;;;;;11.93;10.00;;;;;;;16.21;95.01;101950.16;5113894;28;20027;-66
2023/05/08 02:24:39;;;;;;;13.50;9.73;;;;;;;16.23;94.95;101954.63;5113859;28;20107;-66
2023/05/08 02:27:07;;;;;;;10.43;9.25;;;;;;;16.21;94.50;101951.06;5114023;28;20051;-66
2023/05/08 02:29:33;;;;;;;11.90;9.98;;;;;;;16.16;94.83;101944.81;5113687;28;20477;-66
2023/05/08 02:32:01;;;;;;;10.80;9.70;;;;;;;16.14;94.88;101948.34;5112846;28;20027;-67
2023/05/08 02:34:27;;;;;;;10.63;9.52;;;;;;;16.17;94.91;101948.38;5113685;28;20495;-67
2023/05/08 02:36:53;;;;;;;11.18;9.98;;;;;;;16.19;94.70;101942.16;5113813;28;20031;-66
2023/05/08 02:39:24;;;;;;;13.90;11.90;;;;;;;16.21;94.62;101942.16;5113671;28;20103;-67
2023/05/08 02:41:50;;;;;;;13.82;12.43;;;;;;;16.22;94.68;101939.50;5113606;28;20031;-66
2023/05/08 02:44:15;;;;;;;14.75;13.25;;;;;;;16.23;94.82;101949.31;5113632;28;20027;-66
2023/05/08 02:47:05;;;;;;;13.07;11.75;;;;;;;16.24;94.73;101945.75;5113537;28;20107;-66
2023/05/08 02:49:50;;;;;;;12.57;11.25;;;;;;;16.19;94.78;101946.63;5114274;28;20048;-65
2023/05/08 02:52:17;;;;;;;14.30;12.02;;;;;;;16.13;94.84;101946.56;5117912;28;20028;-65
2023/05/08 02:54:57;;;;;;;14.32;12.68;;;;;;;16.09;95.34;101944.75;5117706;28;20457;-66
2023/05/08 02:57:41;;;;;;;14.27;12.57;;;;;;;16.10;95.68;101941.19;5117798;28;20105;-66
2023/05/08 03:00:19;;;;;;;14.93;12.68;;;;;;;16.07;95.65;101934.09;5117707;28;20065;-66
2023/05/08 03:03:07;;;;;;;15.27;12.15;;;;;;;16.14;95.37;101945.66;5117733;28;20076;-66
2023/05/08 03:05:37;;;;;;;14.27;12.70;;;;;;;16.11;95.29;101938.56;5117692;27;20023;-66
2023/05/08 03:08:06;;;;;;;15.05;13.43;;;;;;;16.15;95.37;101940.38;5117766;28;20032;-66
2023/05/08 03:10:33;;;;;;;14.80;13.25;;;;;;;16.16;95.21;101941.25;5116245;28;20032;-67
2023/05/08 03:13:03;;;;;;;17.65;13.60;;;;;;;16.10;95.25;101941.19;5117464;28;20436;-66
2023/05/08 03:15:35;;;;;;;15.43;13.75;;;;;;;16.02;95.83;101933.19;5117351;28;20568;-66
2023/05/08 03:18:10;;;;;;;15.35;13.48;;;;;;;16.03;95.69;101937.63;5117440;28;20420;-66
2023/05/08 03:20:42;;;;;;;14.77;13.27;;;;;;;16.04;96.10;101939.41;5117752;28;20020;-66
2023/05/08 03:23:12;;;;;;;14.80;13.20;;;;;;;15.99;95.88;101946.50;5117261;28;20418;-66
2023/05/08 03:25:40;;;;;;;16.65;13.98;;;;;;;15.94;96.11;101935.81;5117464;28;20032;-66
2023/05/08 03:28:06;;;;;;;16.08;14.48;;;;;;;15.94;96.39;101934.91;5115938;28;20430;-66
2023/05/08 03:30:35;;;;;;;17.50;14.30;;;;;;;15.95;96.38;101947.34;5117075;28;20039;-67
2023/05/08 03:33:02;;;;;;;16.35;14.13;;;;;;;15.96;96.33;101942.00;5117358;28;20058;-67
2023/05/08 03:35:30;;;;;;;17.25;14.15;;;;;;;15.96;96.21;101942.00;5117378;28;20469;-66
2023/05/08 03:37:56;;;;;;;14.75;13.15;;;;;;;15.95;95.52;101931.34;5117023;28;20069;-67
2023/05/08 03:40:22;;;;;;;14.52;12.90;;;;;;;15.96;95.57;101934.00;5116029;28;20035;-66
2023/05/08 03:42:49;;;;;;;17.67;13.43;;;;;;;15.86;95.94;101934.84;5115652;28;20024;-67
2023/05/08 03:45:16;;;;;;;14.45;12.25;;;;;;;15.84;95.72;101930.38;5115470;28;20058;-66
2023/05/08 03:47:42;;;;;;;16.25;12.88;;;;;;;15.77;95.85;101930.34;5116798;28;20028;-67
2023/05/08 03:50:08;;;;;;;16.52;14.82;;;;;;;15.76;96.27;101925.91;5116681;28;20464;-67
2023/05/08 03:52:34;;;;;;;16.33;14.65;;;;;;;15.72;96.46;101937.44;5116981;28;20028;-66
2023/05/08 03:55:00;;;;;;;16.67;14.55;;;;;;;15.69;96.24;101934.75;5115526;28;20039;-66
2023/05/08 03:57:59;;;;;;;17.95;15.52;;;;;;;15.64;96.75;101925.81;5116571;28;20027;-66
2023/05/08 04:00:40;;;;;;;18.10;14.85;;;;;;;15.64;96.60;101933.81;5102757;28;20032;-67
2023/05/08 04:04:03;;;;;;;17.10;15.02;;;;;;;15.67;96.43;101939.19;5116654;28;20024;-67
2023/05/08 04:06:36;;;;;;;20.40;15.55;;;;;;;15.63;96.42;101940.00;5033801;28;20030;-67
2023/05/08 04:09:16;;;;;;;17.58;15.77;;;;;;;15.63;96.76;101936.41;5033854;28;20053;-67
2023/05/08 04:11:52;;;;;;;18.33;15.65;;;;;;;15.63;96.45;101937.34;5084274;28;20396;-66
2023/05/08 04:14:20;;;;;;;17.33;14.73;;;;;;;15.67;96.36;101936.50;5116141;28;20088;-66
2023/05/08 04:16:52;;;;;;;17.50;15.60;;;;;;;15.70;96.48;101941.84;5116176;28;20515;-67
2023/05/08 04:19:24;;;;;;;16.48;14.75;;;;;;;15.76;95.93;101943.69;5116182;28;20016;-66
2023/05/08 04:21:50;;;;;;;;;;;;;;;15.85;94.97;101935.75;5116910;28;20536;-66
2023/05/08 04:24:17;;;;;;;16.25;14.13;;;;;;;15.76;94.92;101949.91;5116170;28;19951;-67
2023/05/08 04:26:44;;;;;;;16.23;14.35;;;;;;;15.65;94.41;101948.03;5116025;28;20035;-66
2023/05/08 04:29:10;;;;;;;16.70;14.38;;;;;;;15.61;94.91;101947.06;5115980;28;20111;-64
2023/05/08 04:31:37;;;;;;;16.63;14.65;;;;;;;15.58;95.25;101951.47;5116002;28;20062;-65
2023/05/08 04:34:03;;;;;;;16.67;14.88;;;;;;;15.56;95.12;101946.16;5114668;28;20388;-65
2023/05/08 04:36:30;;;;;;;18.70;14.73;;;;;;;15.57;95.40;101961.25;5114895;28;20027;-65
2023/05/08 04:38:55;;;;;;;18.27;16.38;;;;;;;15.52;96.15;101963.00;5115894;27;20105;-65
2023/05/08 04:41:21;;;;;;;17.30;15.48;;;;;;;15.56;96.14;101962.13;5114415;28;20045;-65
2023/05/08 04:43:47;;;;;;;18.92;15.27;;;;;;;15.59;96.28;101967.50;5115943;28;20023;-65
2023/05/08 04:46:13;;;;;;;17.45;15.65;;;;;;;15.59;96.02;101962.19;5115585;28;20541;-65
2023/05/08 04:48:38;;;;;;;18.17;15.73;;;;;;;15.65;96.23;101958.69;5115806;28;20024;-64
2023/05/08 04:51:04;;;;;;;19.35;15.20;;;;;;;15.64;96.36;101964.88;5115694;28;20020;-65
2023/05/08 04:53:29;;;;;;;18.77;16.13;;;;;;;15.69;96.34;101957.84;5115514;28;20055;-65
2023/05/08 04:55:56;;;;;;;18.23;15.95;;;;;;;15.71;96.47;101970.28;5115422;28;20039;-65
2023/05/08 04:58:21;;;;;;;20.52;17.02;;;;;;;15.75;96.35;101969.41;5115512;28;20106;-65
2023/05/08 05:00:46;;;;;;;16.48;14.82;;;;;;;15.78;96.02;101969.44;5114097;28;20070;-65
2023/05/08 05:03:12;;;;;;;17.40;14.85;;;;;;;15.82;95.81;101972.16;5115339;28;20037;-64
2023/05/08 05:05:37;;;;;;;17.02;14.25;;;;;;;15.84;95.71;101975.69;5115316;28;20034;-65
2023/05/08 05:08:03;;;;;;;21.60;14.70;;;;;;;15.79;95.54;101983.66;5115529;28;20028;-65
2023/05/08 05:10:28;;;;;;;18.63;15.57;;;;;;;15.79;96.14;101981.00;5113880;28;20043;-65
2023/05/08 05:12:53;;;;;;;21.13;16.15;;;;;;;15.79;96.49;101986.31;5114335;28;20477;-65
2023/05/08 05:15:19;;;;;;;21.30;17.35;;;;;;;15.79;96.89;101983.66;5114013;28;20035;-65
2023/05/08 05:17:44;;;;;;;20.00;17.80;;;;;;;15.86;97.10;101992.59;5115108;28;20110;-65
2023/05/08 05:20:10;;;;;;;22.00;18.73;;;;;;;15.84;97.32;101989.91;5113771;28;20027;-65
2023/05/08 05:22:35;;;;;;;23.35;19.67;;;;;;;15.88;97.65;101994.38;5114885;28;20515;-65
2023/05/08 05:25:01;;;;;;;23.55;20.98;;;;;;;15.93;98.14;101982.00;5115219;28;20040;-64
2023/05/08 05:27:26;;;;;;;23.00;20.10;;;;;;;15.95;97.69;101992.66;5115035;28;20028;-65
2023/05/08 05:29:52;;;;;;;25.10;19.00;;;;;;;15.97;97.99;101998.88;5114819;28;20028;-65
2023/05/08 05:32:17;;;;;;;24.02;18.92;;;;;;;16.00;97.90;101998.91;5114667;28;20035;-64
2023/05/08 05:34:43;;;;;;;23.05;18.90;;;;;;;15.94;97.98;101999.78;5114601;28;20023;-66
2023/05/08 05:37:08;;;;;;;25.02;19.02;;;;;;;15.93;98.34;102003.34;5114951;28;20023;-65
2023/05/08 05:39:35;;;;;;;26.42;20.77;;;;;;;15.96;98.47;102003.34;5114647;28;20073;-64
2023/05/08 05:42:00;;;;;;;28.35;20.35;;;;;;;15.95;98.95;102014.00;5114746;28;20110;-65
2023/05/08 05:44:25;;;;;;;28.23;22.27;;;;;;;15.97;98.76;102021.13;5114475;28;20106;-66
2023/05/08 05:46:51;;;;;;;29.50;22.48;;;;;;;15.99;99.14;102015.81;5114378;28;20019;-65
2023/05/08 05:49:16;;;;;;;30.60;23.95;;;;;;;15.99;99.26;102016.69;5114347;28;20028;-66
2023/05/08 05:51:41;;;;;;;34.08;23.80;;;;;;;15.98;99.33;102014.03;5114619;28;20028;-66
2023/05/08 05:54:07;;;;;;;31.52;24.35;;;;;;;15.96;99.61;102018.44;5114350;28;20413;-66
2023/05/08 05:56:32;;;;;;;34.80;25.45;;;;;;;15.93;99.52;102023.75;5114217;28;20068;-66
2023/05/08 05:58:58;;;;;;;37.10;26.55;;;;;;;15.99;99.92;102021.13;5114319;28;20028;-65
2023/05/08 06:01:23;;;;;;;34.83;26.50;;;;;;;15.97;99.59;102025.53;5113015;28;20032;-65
2023/05/08 06:03:49;;;;;;;33.38;25.48;;;;;;;16.04;99.95;102024.72;5114153;28;20032;-66
2023/05/08 06:06:14;;;;;;;30.85;25.77;;;;;;;16.11;100.00;102012.34;5114242;28;20024;-66
2023/05/08 06:08:40;;;;;;;36.85;28.58;;;;;;;16.15;100.00;102025.69;5095837;28;20032;-66
2023/05/08 06:11:05;;;;;;;36.45;28.10;;;;;;;16.21;99.68;102024.84;5113899;28;20107;-66
2023/05/08 06:13:30;;;;;;;34.20;27.10;;;;;;;16.20;99.93;102021.28;5112657;28;20048;-66
2023/05/08 06:15:56;;;;;;;37.88;28.65;;;;;;;16.19;100.00;102022.19;5113765;28;20020;-65
2023/05/08 06:18:22;;;;;;;39.42;28.63;;;;;;;16.25;100.00;102018.63;5114083;28;20016;-66
2023/05/08 06:20:47;;;;;;;35.13;28.65;;;;;;;16.32;99.69;102016.91;5114022;28;20034;-67
2023/05/08 06:23:13;;;;;;;36.33;29.75;;;;;;;16.41;99.32;102015.19;5114030;28;20503;-65
2023/05/08 06:25:39;;;;;;;37.65;29.52;;;;;;;16.45;98.78;102017.00;5113055;28;20023;-66
2023/05/08 06:28:06;;;;;;;39.05;31.27;;;;;;;16.52;98.91;102021.44;5113785;28;20028;-65
2023/05/08 06:30:33;;;;;;;39.28;31.35;;;;;;;16.57;98.89;102016.13;5113966;28;20034;-66
2023/05/08 06:32:58;;;;;;;40.80;31.63;;;;;;;16.62;98.45;102016.19;5113782;28;20024;-66
2023/05/08 06:35:25;;;;;;;40.58;33.53;;;;;;;16.68;98.41;102019.75;5113639;28;20102;-66
2023/05/08 06:37:50;;;;;;;40.42;32.38;;;;;;;16.70;97.75;102023.34;5112308;28;20546;-66
2023/05/08 06:40:15;;;;;;;44.33;34.70;;;;;;;16.72;97.91;102020.66;5113539;28;20032;-66
2023/05/08 06:42:41;;;;;;;41.33;32.97;;;;;;;16.74;98.34;102027.84;5113776;28;20039;-65
2023/05/08 06:45:08;;;;;;;42.72;33.97;;;;;;;16.77;98.15;102033.16;5113583;28;20587;-65
2023/05/08 06:47:33;;;;;;;39.58;31.50;;;;;;;16.77;98.12;102025.16;5113487;28;20036;-65
2023/05/08 06:49:59;;;;;;;43.03;32.90;;;;;;;16.76;98.58;102034.06;5113513;28;20036;-65
2023/05/08 06:52:24;;;;;;;46.63;33.80;;;;;;;16.75;98.72;102023.38;5113670;28;20038;-65
2023/05/08 06:54:50;;;;;;;41.83;33.13;;;;;;;16.75;98.60;102031.41;5113694;28;20024;-65
2023/05/08 06:57:16;;;;;;;40.53;33.75;;;;;;;16.76;98.24;102038.50;5113683;28;20096;-65
2023/05/08 06:59:41;;;;;;;45.58;35.15;;;;;;;16.72;98.37;102037.59;5113784;28;20537;-65
2023/05/08 07:02:08;;;;;;;43.45;34.63;;;;;;;16.69;98.45;102033.97;5113793;28;20385;-65
2023/05/08 07:04:34;;;;;;;39.35;32.67;;;;;;;16.66;98.72;102040.22;5113493;28;20053;-64
2023/05/08 07:06:59;;;;;;;42.20;32.30;;;;;;;16.72;98.94;102045.59;5113499;28;20019;-64
2023/05/08 07:09:25;;;;;;;38.35;32.50;;;;;;;16.71;98.78;102040.25;5113327;28;20035;-65
2023/05/08 07:11:50;;;;;;;41.53;34.22;;;;;;;16.75;99.18;102044.75;5113263;28;20059;-64
2023/05/08 07:14:16;;;;;;;43.25;34.72;;;;;;;16.74;99.60;102045.59;5113087;28;20048;-65
2023/05/08 07:16:41;;;;;;;41.33;34.35;;;;;;;16.74;99.63;102053.63;5113167;28;20053;-65
2023/05/08 07:19:07;;;;;;;41.75;35.67;;;;;;;16.74;99.43;102053.63;5113272;28;20472;-64
2023/05/08 07:21:32;;;;;;;43.38;35.80;;;;;;;16.67;99.04;102052.69;5113524;28;20035;-64
2023/05/08 07:23:57;;;;;;;44.97;36.28;;;;;;;16.65;99.29;102057.09;5113453;28;20099;-64
2023/05/08 07:26:23;;;;;;;45.30;35.35;;;;;;;16.65;99.53;102054.44;5112184;28;20026;-63
2023/05/08 07:28:49;;;;;;;44.78;36.10;;;;;;;16.63;99.85;102049.97;5113294;28;20024;-64
2023/05/08 07:31:15;;;;;;;42.88;34.33;;;;;;;16.63;99.54;102055.31;5112228;28;20053;-64
2023/05/08 07:33:40;;;;;;;44.15;34.53;;;;;;;16.65;99.81;102056.22;5113389;28;20019;-64
2023/05/08 07:36:06;;;;;;;42.05;34.90;;;;;;;16.66;99.31;102050.91;5114800;28;20027;-64
2023/05/08 07:38:31;;;;;;;39.80;33.05;;;;;;;16.70;99.31;102051.78;5117022;28;20193;-65
2023/05/08 07:40:58;;;;;;;42.05;33.92;;;;;;;16.70;99.14;102051.78;5117118;28;20138;-64
2023/05/08 07:43:24;;;;;;;44.95;34.25;;;;;;;16.71;98.86;102041.13;5117174;28;20366;-65
2023/05/08 07:45:50;;;;;;;40.30;33.88;;;;;;;16.74;99.20;102049.19;5116681;28;20035;-65
2023/05/08 07:48:16;;;;;;;42.03;34.05;;;;;;;16.78;99.28;102042.94;5116808;28;20031;-64
2023/05/08 07:50:41;;;;;;;43.95;34.25;;;;;;;16.86;99.31;102034.97;5116625;28;20023;-65
2023/05/08 07:53:07;;;;;;;42.83;33.95;;;;;;;16.90;99.90;102031.44;5116813;28;20028;-64
2023/05/08 07:55:32;;;;;;;45.85;35.00;;;;;;;17.03;99.43;102041.28;5116655;28;20051;-64
2023/05/08 07:57:58;;;;;;;42.63;34.20;;;;;;;17.11;99.29;102043.09;5115606;28;20062;-66
2023/05/08 08:00:26;;;;;;;45.45;35.72;;;;;;;17.19;98.97;102034.19;5116576;28;20500;-65
2023/05/08 08:02:52;;;;;;;41.78;33.83;;;;;;;17.24;97.00;102042.22;5116520;28;20511;-64
2023/05/08 08:05:17;;;;;;;43.92;35.10;;;;;;;17.24;96.11;102045.78;5116146;28;20043;-65
2023/05/08 08:07:43;;;;;;;44.85;36.42;;;;;;;17.36;97.34;102046.72;5116066;28;20488;-65
2023/05/08 08:10:08;;;;;;;46.47;36.47;;;;;;;17.42;96.26;102039.59;5116259;28;20043;-63
2023/05/08 08:12:34;;;;;;;47.03;36.33;;;;;;;17.54;96.56;102038.72;5116246;28;20024;-64
2023/05/08 08:14:59;;;;;;;43.10;35.72;;;;;;;17.55;94.69;102044.94;5115831;28;20571;-65
2023/05/08 08:17:25;;;;;;;44.53;35.20;;;;;;;17.66;94.20;102041.41;5115866;28;20039;-64
2023/05/08 08:19:50;;;;;;;44.80;34.85;;;;;;;17.77;93.98;102047.69;5115960;28;20023;-63
2023/05/08 08:22:15;;;;;;;40.78;32.60;;;;;;;17.81;92.23;102053.91;5115861;28;20051;-64
2023/05/08 08:24:41;;;;;;;38.35;31.85;;;;;;;17.88;92.18;102046.78;5115832;28;20027;-63
2023/05/08 08:27:07;;;;;;;40.72;34.05;;;;;;;17.96;92.21;102048.56;5115771;28;20036;-64
2023/05/08 08:29:32;;;;;;;41.47;32.50;;;;;;;18.02;91.43;102045.00;5115963;28;20038;-63
2023/05/08 08:31:59;;;;;;;43.00;33.38;;;;;;;18.14;92.74;102036.06;5115809;28;20027;-63
2023/05/08 08:34:24;;;;;;;36.70;30.77;;;;;;;18.31;91.79;102046.75;5115702;28;20060;-63
2023/05/08 08:36:50;;;;;;;36.58;30.33;;;;;;;18.40;90.16;102044.03;5115644;28;20107;-63
2023/05/08 08:39:15;;;;;;;38.15;29.65;;;;;;;18.50;89.52;102040.47;5115300;28;20123;-63
2023/05/08 08:41:41;;;;;;;32.92;27.27;;;;;;;18.64;86.27;102038.63;5114095;28;20020;-64
2023/05/08 08:44:06;;;;;;;32.42;28.05;;;;;;;18.79;85.81;102045.72;5115050;28;20496;-63
2023/05/08 08:46:33;;;;;;;34.55;27.95;;;;;;;18.87;87.60;102030.53;5115030;28;20036;-63
2023/05/08 08:49:02;;;;;;;34.22;28.52;;;;;;;18.90;86.43;102038.56;5113392;28;20024;-63
2023/05/08 08:51:32;;;;;;;30.60;26.50;;;;;;;19.02;85.12;102040.28;5115211;28;20037;-63
2023/05/08 08:54:16;;;;;;;31.70;26.30;;;;;;;19.04;84.01;102042.94;5115215;28;20024;-63
2023/05/08 08:56:44;;;;;;;33.47;26.33;;;;;;;19.27;83.68;102043.69;5114898;28;20019;-63
2023/05/08 08:59:12;;;;;;;31.98;25.83;;;;;;;19.42;82.71;102040.03;5115272;28;20032;-63
2023/05/08 09:01:39;;;;;;;27.88;24.60;;;;;;;19.63;81.19;102050.66;5115109;28;20020;-63
2023/05/08 09:04:05;;;;;;;29.77;24.52;;;;;;;19.75;81.58;102049.66;5115611;28;20036;-63
2023/05/08 09:06:35;;;;;;;26.60;21.42;;;;;;;19.98;79.20;102046.78;5115400;28;20401;-63
2023/05/08 09:09:01;;;;;;;26.17;22.70;;;;;;;20.08;79.63;102047.56;5115091;28;20548;-62
2023/05/08 09:11:26;;;;;;;28.83;25.63;;;;;;;20.11;79.51;102047.56;5115118;27;20042;-63
2023/05/08 09:13:53;;;;;;;32.90;26.08;;;;;;;20.10;78.66;102053.84;5114243;28;20051;-62
2023/05/08 09:16:19;;;;;;;29.73;25.20;;;;;;;20.12;79.19;102052.00;5114642;28;20170;-63
2023/05/08 09:18:44;;;;;;;29.13;24.92;;;;;;;20.19;79.24;102043.00;5114709;28;20500;-64
2023/05/08 09:21:11;;;;;;;27.52;23.15;;;;;;;20.22;78.04;102054.59;5114450;28;20055;-62
2023/05/08 09:23:57;;;;;;;26.67;22.77;;;;;;;20.26;79.12;102060.84;5112931;28;20016;-62
2023/05/08 09:26:31;;;;;;;27.40;23.63;;;;;;;20.22;77.78;102062.66;5114744;28;20096;-62
2023/05/08 09:29:14;;;;;;;26.10;22.02;;;;;;;20.18;78.00;102049.28;5114459;28;20070;-63
2023/05/08 09:31:51;;;;;;;24.17;21.58;;;;;;;20.01;76.46;102058.38;5114048;28;20369;-62
2023/05/08 09:34:28;;;;;;;26.88;22.58;;;;;;;20.09;79.14;102041.31;5114733;28;20434;-63
2023/05/08 09:37:13;;;;;;;28.20;23.33;;;;;;;20.10;78.84;102045.78;5114600;28;20031;-63
2023/05/08 09:39:40;;;;;;;26.85;22.55;;;;;;;20.07;77.31;102049.38;5113961;28;20047;-62
2023/05/08 09:42:06;;;;;;;28.38;22.05;;;;;;;20.13;77.98;102045.75;5112952;28;20039;-62
2023/05/08 09:44:49;;;;;;;25.83;22.02;;;;;;;20.27;77.80;102047.38;5111970;28;20532;-63
2023/05/08 09:47:20;;;;;;;27.20;23.23;;;;;;;20.32;78.63;102046.47;5112874;28;20020;-62
2023/05/08 09:49:59;;;;;;;29.33;23.73;;;;;;;20.39;78.28;102048.19;5113297;28;20026;-63
2023/05/08 09:52:25;;;;;;;27.20;23.10;;;;;;;20.37;77.00;102042.81;5113265;28;20023;-62
2023/05/08 09:55:01;;;;;;;26.90;23.42;;;;;;;20.40;77.47;102049.94;5112899;28;20110;-62
2023/05/08 09:57:27;;;;;;;29.58;24.08;;;;;;;20.30;76.08;102050.94;5112751;28;20027;-63
2023/05/08 10:00:19;;;;;;;30.67;24.83;;;;;;;20.16;78.65;102049.28;5112656;28;20373;-63
2023/05/08 10:03:16;;;;;;;31.75;25.10;;;;;;;19.98;77.73;102047.66;5110187;28;20494;-62
2023/05/08 10:05:41;;;;;;;27.38;24.00;;;;;;;19.94;76.63;102055.75;5114077;28;20032;-62
2023/05/08 10:08:21;;;;;;;29.45;24.20;;;;;;;19.95;78.45;102052.16;5113982;28;20047;-63
2023/05/08 10:10:46;;;;;;;29.38;24.83;;;;;;;19.97;78.05;102051.25;5114088;28;20024;-63
2023/05/08 10:13:12;;;;;;;30.65;25.60;;;;;;;19.93;78.12;102052.19;5112560;28;20431;-62
2023/05/08 10:15:41;;;;;;;28.55;23.75;;;;;;;19.95;77.82;102054.84;5113507;28;20043;-62
2023/05/08 10:18:07;;;;;;;29.75;25.17;;;;;;;19.96;78.13;102057.53;5113773;28;20031;-62
2023/05/08 10:20:37;;;;;;;30.40;25.67;;;;;;;19.89;77.48;102060.28;5113699;28;20031;-62
2023/05/08 10:23:06;;;;;;;30.52;26.42;;;;;;;19.93;79.01;102062.91;5113732;28;20507;-63
2023/05/08 10:25:33;;;;;;;29.33;25.95;;;;;;;19.90;78.35;102059.38;5105519;28;20092;-63
2023/05/08 10:28:14;;;;;;;33.22;26.48;;;;;;;19.80;78.52;102063.94;5113047;28;20024;-62
2023/05/08 10:30:46;;;;;;;54.47;29.95;;;;;;;19.75;79.85;102061.28;5113025;27;20031;-62
2023/05/08 10:33:14;;;;;;;41.73;30.30;;;;;;;19.75;80.76;102063.97;5113631;28;20069;-62
2023/05/08 10:35:39;;;;;;;39.97;28.90;;;;;;;19.69;80.36;102055.94;5113709;28;20301;-62
2023/05/08 10:38:08;;;;;;;36.35;30.23;;;;;;;19.78;82.54;102054.97;5113548;28;20124;-62
2023/05/08 10:40:37;;;;;;;39.10;30.70;;;;;;;19.82;81.93;102056.75;5113392;28;20408;-62
2023/05/08 10:43:04;;;;;;;39.47;30.42;;;;;;;19.87;82.32;102054.94;5112200;28;20027;-62
2023/05/08 10:45:31;;;;;;;39.38;31.73;;;;;;;19.89;81.17;102058.47;5113648;28;20066;-62
2023/05/08 10:48:04;;;;;;;41.67;32.03;;;;;;;19.88;80.46;102054.03;5113301;28;20051;-63
2023/05/08 10:51:14;;;;;;;44.47;32.65;;;;;;;19.92;81.10;102061.16;5111874;28;20024;-63
2023/05/08 10:53:45;;;;;;;41.30;31.83;;;;;;;19.84;79.39;102056.75;5030812;28;20026;-63
2023/05/08 10:56:10;;;;;;;42.03;32.75;;;;;;;19.95;79.69;102049.47;5104191;28;20040;-63
2023/05/08 10:58:38;;;;;;;42.05;32.42;;;;;;;20.10;80.54;102043.97;5113550;28;20027;-63
2023/05/08 11:01:06;;;;;;;44.35;32.90;;;;;;;20.33;81.33;102049.13;5113363;28;20035;-63
2023/05/08 11:03:37;;;;;;;43.95;32.03;;;;;;;20.41;77.84;102043.66;5113292;28;20023;-62
2023/05/08 11:06:03;;;;;;;44.73;32.10;;;;;;;20.45;77.59;102040.94;5113384;28;20039;-63
2023/05/08 11:08:30;;;;;;;86.15;72.95;;;;;;;20.40;78.36;102042.78;5113328;28;20600;-63
2023/05/08 11:11:01;;;;;;;43.63;32.85;;;;;;;20.37;77.09;102033.88;5114525;28;20537;-63
2023/05/08 11:13:36;;;;;;;44.67;33.58;;;;;;;20.47;77.57;102028.41;5115768;28;20050;-63
2023/05/08 11:16:05;;;;;;;45.35;34.35;;;;;;;20.47;78.84;102033.75;5117192;28;20538;-63
2023/05/08 11:18:30;;;;;;;47.47;36.50;;;;;;;20.69;79.34;102030.84;5117279;28;20019;-63
2023/05/08 11:21:02;;;;;;;43.53;33.35;;;;;;;20.78;76.08;102027.16;5117226;28;20430;-64